Latest Weather Observations for Portland Airport

IDV60801

Issued at 1:32 pm EST Wednesday 27 July 2016 (issued every 30 minutes, with the page automatically refreshed every 10 minutes)

About weather observations | Map of weather stations | Latest weather observations for VIC | Other Formats
Station Details ID: 090171 Name: CASHMORE AIRPORT Lat: -38.31 Lon: 141.47 Height: 80.9 m
Data from the previous 72 hours. | See also: Recent months at Portland Airport
Date/Time
EST
Temp
°C
App
Temp
°C
Dew
Point
°C
Rel
Hum
%
Delta-T
°C
Wind Press
QNH
hPa
Press
MSL
hPa
Rain since
9am
mm
Dir  Spd
km/h
Gust
km/h
Spd
kts
Gust
kts
27/01:30pm 10.3 3.4 4.5 67 2.6 W 30 39 16 21 1018.3 1018.4 0.0
27/01:00pm 10.5 3.0 4.2 65 2.8 WSW 33 43 18 23 1018.3 1018.4 0.0
27/12:30pm 11.4 4.2 5.1 65 2.9 WSW 32 39 17 21 1018.1 1018.2 0.0
27/12:00pm 10.1 2.7 4.0 66 2.7 WSW 32 43 17 23 1018.3 1018.4 0.0
27/11:30am 10.0 3.1 2.6 60 3.2 WSW 28 41 15 22 1018.1 1018.2 0.0
27/11:00am 9.6 3.8 4.4 70 2.3 WSW 24 35 13 19 1017.9 1018.0 0.0
27/10:30am 10.1 3.5 4.3 67 2.6 WSW 28 41 15 22 1017.5 1017.6 0.0
27/10:00am 9.2 4.0 3.4 67 2.5 WSW 20 32 11 17 1017.0 1017.1 0.0
27/09:30am 9.0 3.0 3.4 68 2.4 SW 24 33 13 18 1016.9 1017.0 0.0
27/09:00am 9.1 2.9 2.0 61 3.0 SW 24 35 13 19 1016.3 1016.4 8.2
27/08:30am 8.4 2.9 2.0 64 2.7 SW 20 30 11 16 1015.7 1015.8 8.0
27/08:00am 8.3 3.2 3.2 70 2.2 SW 19 37 10 20 1015.3 1015.4 8.0
27/07:30am 8.5 3.2 2.9 68 2.4 SSW 20 32 11 17 1014.6 1014.7 8.0
27/07:00am 8.7 4.0 3.1 68 2.4 SW 17 26 9 14 1013.7 1013.8 8.0
27/06:30am 8.3 2.8 3.9 74 1.9 SW 22 35 12 19 1013.0 1013.1 8.0
27/06:00am 8.3 2.1 4.3 76 1.8 SW 26 37 14 20 1012.4 1012.5 8.0
27/05:30am 8.7 3.2 4.1 73 2.0 SW 22 37 12 20 1011.2 1011.4 8.0
27/05:00am 9.3 3.4 3.9 69 2.4 SSW 24 43 13 23 1010.3 1010.4 8.0
27/04:51am 9.0 2.6 5.2 77 1.7 SSW 28 48 15 26 1010.1 1010.2 8.0
27/04:30am 9.3 3.4 5.9 79 1.6 SSW 26 44 14 24 1009.4 1009.5 8.0
27/04:17am 9.2 3.7 6.1 81 1.4 SSW 24 44 13 24 1009.0 1009.1 8.0
27/04:00am 9.4 3.4 7.0 85 1.1 SSW 28 48 15 26 1008.5 1008.6 8.0
27/03:55am 9.4 3.5 7.3 87 1.0 SSW 28 46 15 25 1008.3 1008.4 8.0
27/03:54am 9.4 3.1 7.3 87 1.0 SSW 30 46 16 25 1008.3 1008.4 8.0
27/03:42am 9.6 3.8 7.9 89 0.8 SSW 28 50 15 27 1007.9 1008.0 8.0
27/03:41am 9.7 4.3 8.0 89 0.8 SSW 26 50 14 27 1007.8 1007.9 8.0
27/03:38am 9.7 5.1 8.0 89 0.8 SSW 22 43 12 23 1007.7 1007.8 7.8
27/03:34am 10.0 5.8 8.3 89 0.8 SSW 20 39 11 21 1007.7 1007.8 7.6
27/03:30am 10.0 5.1 8.3 89 0.8 SSW 24 41 13 22 1007.4 1007.5 7.6
27/03:19am 9.8 5.5 7.9 88 0.9 SW 20 28 11 15 1007.2 1007.3 7.6
27/03:00am 10.0 5.8 7.6 85 1.2 SW 19 30 10 16 1006.7 1006.8 7.2
27/02:30am 10.2 5.8 7.6 84 1.3 WSW 20 32 11 17 1005.9 1006.0 6.6
27/02:00am 10.4 6.0 7.3 81 1.5 WSW 20 30 11 16 1005.2 1005.3 6.6
27/01:30am 10.4 5.1 6.7 78 1.7 WSW 24 33 13 18 1004.9 1005.0 6.6
27/01:00am 10.3 5.3 8.1 86 1.1 WSW 24 35 13 19 1004.2 1004.3 6.6
27/12:30am 9.0 4.6 7.6 91 0.7 WNW 20 30 11 16 1003.7 1003.8 6.6
27/12:00am 8.8 4.4 7.6 92 0.6 NW 20 26 11 14 1003.4 1003.5 6.6
 
Date/Time
EST
Temp
°C
App
Temp
°C
Dew
Point
°C
Rel
Hum
%
Delta-T
°C
Wind Press
QNH
hPa
Press
MSL
hPa
Rain since
9am
mm
Dir  Spd
km/h
Gust
km/h
Spd
kts
Gust
kts
26/11:30pm 8.2 3.9 6.8 91 0.7 NW 19 26 10 14 1003.3 1003.4 6.4
26/11:00pm 7.9 3.3 6.4 90 0.7 NNW 20 30 11 16 1002.8 1002.9 6.2
26/10:30pm 7.7 3.0 6.2 90 0.7 NNW 20 30 11 16 1002.4 1002.5 6.2
26/10:00pm 7.9 2.5 6.4 90 0.7 NNW 24 35 13 19 1002.1 1002.2 6.2
26/09:30pm 8.1 2.8 6.6 90 0.7 NNW 24 33 13 18 1002.0 1002.1 6.2
26/09:00pm 8.2 2.1 6.5 89 0.8 NNW 28 41 15 22 1002.0 1002.1 6.0
26/08:30pm 8.2 2.4 6.3 88 0.9 NNW 26 43 14 23 1002.0 1002.1 6.0
26/08:12pm 8.4 1.9 6.4 87 0.9 NNW 30 52 16 28 1001.9 1002.0 6.0
26/08:00pm 8.3 2.2 6.4 88 0.9 NNW 28 43 15 23 1002.0 1002.1 6.0
26/07:51pm 8.3 2.9 6.4 88 0.9 NNW 24 37 13 20 1002.1 1002.2 6.0
26/07:30pm 8.2 2.5 6.5 89 0.8 NNW 26 37 14 20 1002.0 1002.1 6.0
26/07:17pm 8.2 2.9 6.7 90 0.7 NNW 24 44 13 24 1002.0 1002.1 6.0
26/07:00pm 8.0 2.6 6.5 90 0.7 NNW 24 37 13 20 1002.3 1002.4 6.0
26/06:30pm 7.8 2.4 6.3 90 0.7 N 24 35 13 19 1002.6 1002.7 5.6
26/06:00pm 7.7 2.3 6.2 90 0.7 NNW 24 35 13 19 1003.1 1003.2 4.8
26/05:30pm 7.7 2.6 6.0 89 0.8 NNW 22 32 12 17 1003.3 1003.4 3.6
26/05:00pm 7.8 1.9 5.8 87 0.9 NNW 26 39 14 21 1003.7 1003.8 3.2
26/04:30pm 8.3 2.0 5.8 84 1.1 NNW 28 41 15 22 1004.2 1004.3 2.8
26/04:00pm 8.8 2.1 5.4 79 1.5 NNW 30 48 16 26 1004.6 1004.7 2.8
26/03:56pm 8.7 2.3 5.4 80 1.5 NNW 28 46 15 25 1004.7 1004.8 2.8
26/03:30pm 8.8 2.9 5.7 81 1.4 NNW 26 37 14 20 1004.9 1005.0 2.8
26/03:00pm 8.6 2.3 5.9 83 1.2 NNW 28 43 15 23 1005.3 1005.4 2.8
26/02:30pm 8.3 2.4 5.9 85 1.1 NNW 26 37 14 20 1005.9 1006.0 2.8
26/02:00pm 8.2 2.0 6.2 87 0.9 NNW 28 43 15 23 1006.5 1006.6 2.8
26/01:30pm 7.5 1.5 5.3 86 1.0 NNW 26 41 14 22 1007.5 1007.6 1.8
26/01:00pm 8.5 3.4 5.8 83 1.2 NNW 22 32 12 17 1007.6 1007.7 1.4
26/12:30pm 7.5 2.8 5.1 85 1.1 NNW 19 28 10 15 1008.5 1008.6 1.4
26/12:00pm 7.5 1.4 4.8 83 1.2 NNW 26 37 14 20 1009.2 1009.3 1.2
26/11:30am 7.8 2.1 5.1 83 1.2 NNW 24 33 13 18 1009.3 1009.4 1.2
26/11:00am 7.4 1.7 4.9 84 1.1 NNW 24 35 13 19 1009.4 1009.5 1.2
26/10:30am 6.8 2.5 5.1 89 0.8 N 17 24 9 13 1009.8 1009.9 1.2
26/10:00am 5.8 0.9 4.0 88 0.8 NW 19 28 10 15 1010.5 1010.6 0.6
26/09:30am 5.8 0.6 3.3 84 1.0 NNW 20 28 11 15 1010.1 1010.2 0.0
26/09:00am 6.8 2.1 3.4 79 1.4 NNW 17 24 9 13 1010.0 1010.1 12.0
26/08:30am 7.5 0.0 3.2 74 1.8 WNW 32 46 17 25 1009.8 1009.9 11.8
26/08:18am 8.6 1.9 3.4 70 2.2 WNW 28 48 15 26 1009.7 1009.8 11.8
26/08:00am 8.8 1.7 1.5 60 3.0 W 28 37 15 20 1009.5 1009.6 11.8
26/07:30am 8.4 1.7 1.6 62 2.8 W 26 37 14 20 1009.7 1009.8 11.8
26/07:00am 8.2 0.8 1.6 63 2.7 W 30 41 16 22 1009.5 1009.6 11.6
26/06:30am 8.7 1.8 2.7 66 2.5 W 28 39 15 21 1009.2 1009.3 11.6
26/06:00am 8.3 1.5 3.0 69 2.3 W 28 37 15 20 1009.0 1009.1 11.6
26/05:30am 6.8 1.5 3.1 77 1.6 WNW 20 30 11 16 1009.1 1009.2 11.6
26/05:03am 8.3 0.9 1.7 63 2.7 W 30 48 16 26 1008.9 1009.0 11.6
26/05:00am 8.1 0.7 1.9 65 2.6 W 30 39 16 21 1008.9 1009.0 11.6
26/04:30am 8.4 0.5 1.3 61 2.9 WSW 32 44 17 24 1008.9 1009.0 11.6
26/04:09am 8.0 -0.9 0.7 60 2.9 WSW 37 56 20 30 1009.0 1009.1 11.6
26/04:00am 8.0 -1.6 1.0 61 2.8 W 41 54 22 29 1008.9 1009.0 11.6
26/03:30am 7.5 -0.6 3.0 73 1.9 WSW 35 50 19 27 1008.9 1009.0 11.6
26/03:06am 7.7 -1.2 2.8 71 2.1 W 39 63 21 34 1008.7 1008.8 11.6
26/03:01am 7.7 0.1 3.7 76 1.7 W 33 57 18 31 1008.8 1008.9 11.6
26/03:00am 7.6 0.0 3.8 77 1.6 W 33 44 18 24 1008.8 1008.9 11.6
26/02:51am 6.8 -2.9 2.7 75 1.7 WSW 43 65 23 35 1008.9 1009.0 11.6
26/02:49am 6.8 -2.9 2.7 75 1.7 W 43 65 23 35 1009.1 1009.2 11.6
26/02:43am 8.4 0.8 2.8 68 2.4 W 32 50 17 27 1008.8 1008.9 10.8
26/02:30am 8.1 -0.5 2.4 67 2.4 W 37 54 20 29 1008.7 1008.8 10.8
26/02:18am 8.1 -0.1 2.6 68 2.3 W 35 54 19 29 1008.7 1008.8 10.8
26/02:00am 8.0 -1.2 1.4 63 2.7 W 39 54 21 29 1008.7 1008.8 10.8
26/01:30am 7.9 0.0 2.4 68 2.3 W 33 56 18 30 1008.2 1008.3 10.8
26/01:27am 7.4 0.6 2.9 73 1.9 W 28 50 15 27 1008.3 1008.4 10.8
26/01:26am 7.2 0.4 2.9 74 1.8 W 28 35 15 19 1008.3 1008.4 10.8
26/01:09am 6.1 -3.9 1.1 70 2.0 W 43 65 23 35 1008.3 1008.4 10.6
26/01:03am 8.9 0.4 2.9 66 2.6 W 37 57 20 31 1007.9 1008.0 10.0
26/01:00am 8.7 0.2 2.9 67 2.5 W 37 50 20 27 1008.0 1008.1 10.0
26/12:30am 8.8 -0.6 2.6 65 2.6 W 41 61 22 33 1007.9 1008.0 10.0
26/12:12am 7.9 -1.2 1.7 65 2.5 W 39 57 21 31 1007.9 1008.0 10.0
26/12:00am 8.6 -0.4 2.2 64 2.7 W 39 56 21 30 1007.8 1007.9 10.0
 
Date/Time
EST
Temp
°C
App
Temp
°C
Dew
Point
°C
Rel
Hum
%
Delta-T
°C
Wind Press
QNH
hPa
Press
MSL
hPa
Rain since
9am
mm
Dir  Spd
km/h
Gust
km/h
Spd
kts
Gust
kts
25/11:30pm 7.8 -1.5 2.9 71 2.1 W 41 65 22 35 1007.5 1007.6 10.0
25/11:06pm 7.4 -1.0 3.8 78 1.5 WSW 37 61 20 33 1007.7 1007.8 9.8
25/11:00pm 7.0 -1.0 4.0 81 1.3 WSW 35 57 19 31 1007.5 1007.6 9.8
25/10:47pm 7.1 -2.4 3.7 79 1.5 WSW 43 67 23 36 1007.2 1007.3 9.6
25/10:45pm 7.7 -1.5 3.7 76 1.7 WSW 41 56 22 30 1007.3 1007.4 9.0
25/10:30pm 9.0 0.6 1.7 60 3.0 W 35 59 19 32 1006.8 1006.9 8.4
25/10:00pm 7.8 -0.6 3.5 74 1.9 WSW 37 67 20 36 1006.8 1006.9 8.4
25/09:51pm 8.1 -0.4 3.4 72 2.0 WSW 37 61 20 33 1006.8 1006.9 8.4
25/09:49pm 8.4 0.0 3.7 72 2.0 WSW 37 65 20 35 1006.7 1006.8 8.4
25/09:30pm 9.0 -1.0 1.0 57 3.3 W 43 61 23 33 1006.1 1006.2 8.4
25/09:00pm 7.0 -4.7 1.3 67 2.3 W 52 83 28 45 1006.7 1006.8 8.2
25/08:56pm 8.7 -2.2 1.1 59 3.1 W 48 83 26 45 1006.1 1006.2 8.2
25/08:31pm 8.1 -0.4 3.0 70 2.2 W 37 57 20 31 1005.8 1005.9 8.2
25/08:30pm 8.0 -0.1 3.3 72 2.0 W 35 46 19 25 1006.0 1006.1 8.2
25/08:01pm 9.3 -1.7 1.0 56 3.4 W 48 70 26 38 1005.3 1005.4 8.2
25/08:00pm 9.2 -1.6 2.1 61 3.0 W 48 65 26 35 1005.4 1005.5 8.2
25/07:30pm 9.2 -3.5 -0.4 51 3.8 W 56 76 30 41 1004.6 1004.7 8.2
25/07:00pm 7.8 -2.5 2.5 69 2.2 WNW 46 65 25 35 1004.2 1004.3 8.2
25/06:30pm 9.2 -0.5 3.0 65 2.7 W 43 63 23 34 1003.5 1003.6 8.2
25/06:00pm 8.5 -2.2 2.5 66 2.5 W 48 67 26 36 1003.3 1003.4 8.2
25/05:36pm 8.4 -1.7 3.5 71 2.1 W 46 69 25 37 1002.9 1003.0 8.2
25/05:30pm 8.5 -1.5 4.3 75 1.8 W 46 61 25 33 1002.9 1003.0 8.2
25/05:24pm 8.5 -1.0 4.9 78 1.6 W 44 59 24 32 1002.6 1002.7 8.2
25/05:10pm 6.5 -5.8 2.9 78 1.5 W 57 102 31 55 1002.7 1002.8 8.2
25/05:05pm 6.0 -6.4 1.7 74 1.7 W 56 102 30 55 1002.2 1002.3 8.2
25/05:04pm 7.2 -4.7 1.9 69 2.2 W 54 102 29 55 1002.3 1002.4 8.0
25/05:00pm 9.5 -2.2 3.3 65 2.7 W 54 74 29 40 1001.9 1002.0 7.8
25/04:30pm 9.4 -3.2 3.6 67 2.5 W 59 89 32 48 1001.5 1001.6 7.8
25/04:00pm 8.7 -2.7 4.7 76 1.8 W 54 72 29 39 1000.8 1000.8 7.6
25/03:44pm 9.6 -0.2 5.4 75 1.9 WNW 46 74 25 40 1000.5 1000.5 7.4
25/03:43pm 9.5 0.1 5.5 76 1.8 WNW 44 69 24 37 1000.5 1000.5 7.4
25/03:31pm 9.0 0.9 7.1 88 0.9 WNW 39 57 21 31 1000.6 1000.6 7.4
25/03:30pm 9.1 1.5 7.4 89 0.8 WNW 37 54 20 29 1000.9 1001.0 7.4
25/03:27pm 8.9 0.8 7.2 89 0.8 WNW 39 63 21 34 1000.6 1000.6 7.4
25/03:19pm 8.5 -0.9 7.1 91 0.7 W 46 63 25 34 1001.2 1001.3 7.4
25/03:12pm 8.4 -2.9 7.0 91 0.7 W 56 87 30 47 1001.1 1001.2 7.4
25/03:06pm 8.4 -1.6 6.2 86 1.0 W 48 87 26 47 1000.6 1000.6 7.0
25/03:05pm 9.1 -0.4 6.5 84 1.2 WNW 46 83 25 45 1000.7 1000.7 6.6
25/03:04pm 9.5 0.6 6.9 84 1.2 WNW 43 69 23 37 1000.7 1000.7 6.4
25/03:02pm 9.5 1.0 6.9 84 1.2 WNW 41 59 22 32 1000.4 1000.4 6.2
25/03:00pm 9.6 1.2 7.2 85 1.1 WNW 41 57 22 31 1000.3 1000.3 6.0
25/02:57pm 9.6 0.8 7.4 86 1.0 WNW 43 65 23 35 1000.3 1000.3 6.0
25/02:37pm 9.1 1.9 7.7 91 0.7 WNW 35 54 19 29 1000.2 1000.2 5.6
25/02:30pm 8.8 1.5 7.4 91 0.7 WNW 35 54 19 29 1000.3 1000.3 5.0
25/02:29pm 8.8 1.2 7.4 91 0.7 WNW 37 54 20 29 1000.4 1000.4 5.0
25/02:10pm 8.4 -0.9 6.0 85 1.1 WNW 44 76 24 41 1001.0 1001.1 3.6
25/02:03pm 10.1 1.9 8.0 87 1.0 NW 41 61 22 33 999.6 999.6 2.0
25/02:00pm 10.3 2.5 8.4 88 0.9 NW 39 54 21 29 999.7 999.7 1.6
25/01:57pm 10.4 2.3 8.5 88 0.9 NW 41 54 22 29 999.4 999.5 1.2
25/01:31pm 10.5 3.9 8.4 87 1.0 NNW 33 52 18 28 999.7 999.7 0.4
25/01:30pm 10.5 3.9 8.4 87 1.0 NNW 33 48 18 26 999.8 999.8 0.0
25/01:06pm 10.7 3.6 8.1 84 1.3 NNW 35 54 19 29 1001.0 1001.1 0.0
25/01:00pm 10.6 3.0 7.7 82 1.4 NNW 37 54 20 29 1001.0 1001.1 0.0
25/12:45pm 11.1 4.8 7.2 77 1.9 NNW 30 48 16 26 1001.7 1001.8 0.0
25/12:30pm 11.3 4.4 7.4 77 1.9 NNW 33 48 18 26 1002.3 1002.4 0.0
25/12:13pm 11.3 4.5 6.8 74 2.1 NNW 32 52 17 28 1002.8 1002.9 0.0
25/12:00pm 11.9 4.9 7.0 72 2.4 NNW 33 48 18 26 1003.3 1003.4 0.0
25/11:45am 11.6 5.2 6.9 73 2.2 NNW 30 48 16 26 1003.7 1003.8 0.0
25/11:30am 11.5 5.2 7.2 75 2.1 NNW 30 44 16 24 1004.3 1004.4 0.0
25/11:07am 11.0 4.9 6.4 73 2.2 NNW 28 46 15 25 1005.0 1005.1 0.0
25/11:00am 11.1 5.0 6.6 74 2.1 NNW 28 43 15 23 1005.2 1005.3 0.0
25/10:30am 10.9 5.6 6.6 75 2.0 NW 24 37 13 20 1005.6 1005.7 0.0
25/10:00am 9.4 3.6 6.1 80 1.5 NW 26 37 14 20 1006.1 1006.2 0.0
25/09:30am 8.6 3.0 5.5 81 1.4 NNW 24 39 13 21 1006.3 1006.4 0.0
25/09:00am 8.5 3.2 5.1 79 1.5 NNW 22 33 12 18 1006.9 1007.0 17.0
25/08:30am 9.1 3.3 6.4 83 1.3 NW 26 43 14 23 1007.2 1007.3 17.0
25/08:09am 9.5 3.2 5.9 78 1.7 WNW 28 48 15 26 1007.3 1007.4 17.0
25/08:00am 10.1 4.4 4.9 70 2.4 WNW 24 41 13 22 1007.2 1007.3 16.8
25/07:30am 9.7 3.0 3.7 66 2.6 W 28 41 15 22 1007.3 1007.4 16.8
25/07:00am 9.7 3.6 4.9 72 2.2 W 26 37 14 20 1007.4 1007.5 16.8
25/06:30am 9.7 2.4 4.5 70 2.3 W 32 43 17 23 1007.1 1007.2 16.8
25/06:00am 9.9 1.7 4.9 71 2.3 W 37 50 20 27 1006.7 1006.8 16.8
25/05:51am 9.9 2.8 5.3 73 2.1 W 32 50 17 27 1006.6 1006.7 16.8
25/05:30am 9.5 3.4 6.4 81 1.4 WSW 28 37 15 20 1006.5 1006.6 16.8
25/05:17am 9.5 2.5 6.8 83 1.3 WSW 33 52 18 28 1006.3 1006.4 16.8
25/05:10am 8.9 2.8 6.7 86 1.0 WSW 28 43 15 23 1006.2 1006.3 16.8
25/05:00am 9.4 3.1 7.5 88 0.9 WSW 30 39 16 21 1006.2 1006.3 16.8
25/04:58am 9.3 3.0 7.3 87 0.9 WSW 30 39 16 21 1006.2 1006.3 16.8
25/04:54am 9.1 3.1 7.1 87 0.9 SW 28 39 15 21 1006.0 1006.1 16.2
25/04:45am 9.1 2.1 6.9 86 1.0 WSW 33 52 18 28 1006.1 1006.2 16.2
25/04:43am 9.2 1.9 7.0 86 1.0 WSW 35 52 19 28 1006.1 1006.2 16.2
25/04:37am 9.6 2.6 6.9 83 1.3 WSW 33 52 18 28 1005.9 1006.0 16.2
25/04:30am 9.9 3.1 6.8 81 1.5 WSW 32 44 17 24 1005.7 1005.8 15.8
25/04:00am 9.7 2.4 7.1 84 1.2 WSW 35 44 19 24 1005.4 1005.5 15.8
25/03:34am 10.3 3.2 6.3 76 1.9 WSW 33 52 18 28 1005.2 1005.3 15.8
25/03:30am 10.3 3.2 6.3 76 1.9 WSW 33 50 18 27 1005.1 1005.2 15.8
25/03:19am 10.1 3.2 6.6 79 1.6 WSW 32 50 17 27 1005.0 1005.1 15.8
25/03:00am 10.1 2.8 7.2 82 1.4 WSW 35 50 19 27 1004.8 1004.9 15.6
25/02:35am 9.7 3.0 7.3 85 1.1 WSW 32 44 17 24 1004.6 1004.7 15.6
25/02:30am 9.5 2.6 7.3 86 1.0 WSW 33 48 18 26 1004.6 1004.7 15.6
25/02:20am 9.6 2.9 7.4 86 1.0 WSW 32 50 17 27 1004.4 1004.5 15.6
25/02:19am 9.8 3.2 7.6 86 1.1 WSW 32 46 17 25 1004.4 1004.5 15.6
25/02:00am 10.0 2.7 7.1 82 1.4 W 35 50 19 27 1004.1 1004.2 15.2
25/01:30am 10.0 3.3 7.3 83 1.3 W 32 48 17 26 1003.8 1003.9 15.2
25/01:16am 10.3 3.5 7.0 80 1.6 W 32 54 17 29 1003.8 1003.9 15.0
25/01:00am 9.9 3.0 6.6 80 1.6 W 32 44 17 24 1003.5 1003.6 15.0
25/12:30am 9.9 3.2 7.2 83 1.3 W 32 43 17 23 1003.6 1003.7 15.0
25/12:01am 9.7 3.4 7.6 87 1.0 W 30 48 16 26 1003.2 1003.3 14.8
25/12:00am 9.8 4.0 7.9 88 0.9 W 28 43 15 23 1003.3 1003.4 14.8
 
Date/Time
EST
Temp
°C
App
Temp
°C
Dew
Point
°C
Rel
Hum
%
Delta-T
°C
Wind Press
QNH
hPa
Press
MSL
hPa
Rain since
9am
mm
Dir  Spd
km/h
Gust
km/h
Spd
kts
Gust
kts
24/11:30pm 8.3 3.0 6.9 91 0.7 WNW 24 33 13 18 1003.2 1003.3 14.8
24/11:27pm 8.4 3.2 7.2 92 0.6 WNW 24 35 13 19 1003.1 1003.2 14.8
24/11:08pm 7.7 3.1 6.5 92 0.6 NW 20 33 11 18 1003.0 1003.1 14.0
24/11:00pm 7.5 2.5 6.3 92 0.6 NNW 22 35 12 19 1002.8 1002.9 12.4
24/10:38pm 7.8 0.9 6.6 92 0.6 NW 32 44 17 24 1002.6 1002.7 12.2
24/10:30pm 7.6 1.5 6.5 93 0.5 NW 28 39 15 21 1002.5 1002.6 12.2
24/10:22pm 7.3 1.9 6.2 93 0.5 NW 24 35 13 19 1002.5 1002.6 12.2
24/10:13pm 7.1 2.0 6.0 93 0.5 NNW 22 33 12 18 1002.5 1002.6 11.2
24/10:00pm 7.2 2.1 6.0 92 0.5 NW 22 32 12 17 1002.7 1002.8 11.2
24/09:41pm 7.1 2.0 5.9 92 0.5 NW 22 33 12 18 1002.2 1002.3 9.6
24/09:30pm 7.2 2.1 6.0 92 0.5 NNW 22 32 12 17 1002.0 1002.1 8.8
24/09:19pm 7.2 1.7 6.0 92 0.5 NW 24 35 13 19 1002.2 1002.3 8.4
24/09:00pm 7.3 1.8 5.9 91 0.6 NW 24 35 13 19 1002.1 1002.2 7.8
24/08:54pm 7.4 1.9 6.0 91 0.6 NW 24 35 13 19 1002.1 1002.2 7.0
24/08:30pm 7.6 2.9 6.1 90 0.7 NNW 20 35 11 19 1001.5 1001.6 5.8
24/08:04pm 7.7 2.3 6.2 90 0.7 NNW 24 39 13 21 1001.4 1001.5 5.8
24/08:00pm 7.9 2.1 6.2 89 0.8 NW 26 39 14 21 1001.4 1001.5 5.8
24/07:33pm 7.9 3.3 6.7 92 0.6 NW 20 28 11 15 1001.3 1001.4 5.8
24/07:30pm 7.9 3.5 6.7 92 0.6 NW 19 28 10 15 1001.3 1001.4 5.8
24/07:00pm 7.7 2.0 6.5 92 0.6 NW 26 41 14 22 1000.8 1000.8 5.4
24/06:35pm 7.9 3.3 6.5 91 0.6 NW 20 32 11 17 1000.5 1000.5 3.8
24/06:30pm 7.9 3.3 6.5 91 0.6 NW 20 30 11 16 1000.5 1000.5 3.6
24/06:24pm 7.9 2.9 6.5 91 0.6 NW 22 30 12 16 1000.4 1000.4 3.4
24/06:00pm 8.0 2.6 6.5 90 0.7 NNW 24 35 13 19 1000.1 1000.1 2.2
24/05:30pm 7.9 2.5 6.4 90 0.7 NNW 24 37 13 20 999.8 999.8 1.6
24/05:00pm 7.9 2.5 6.2 89 0.8 NNW 24 41 13 22 999.8 999.8 1.4
24/04:30pm 7.9 1.2 5.7 86 1.0 NNW 30 48 16 26 999.6 999.6 0.8
24/04:03pm 8.0 1.8 6.0 87 0.9 NNW 28 48 15 26 999.8 999.8 0.6
24/04:00pm 8.1 2.7 6.2 88 0.9 NNW 24 41 13 22 999.9 999.9 0.6
24/03:33pm 8.6 1.1 6.1 84 1.1 NNW 35 56 19 30 999.7 999.7 0.0
24/03:30pm 8.7 1.7 6.2 84 1.2 NNW 32 48 17 26 999.7 999.7 0.0
24/03:12pm 8.8 2.6 6.3 84 1.2 N 28 46 15 25 999.6 999.6 0.0
24/03:00pm 9.0 4.4 6.3 83 1.3 N 20 33 11 18 999.6 999.6 0.0
24/02:30pm 8.8 4.1 6.1 83 1.2 NNE 20 32 11 17 1000.1 1000.1 0.0
24/02:00pm 8.9 3.4 5.8 81 1.4 N 24 39 13 21 1001.0 1001.1 0.0

Other Formats:

Comma delimited format used in spreadsheet applications
http://www.bom.gov.au/fwo/IDV60801/IDV60801.94828.axf

JavaScript Object Notation format (JSON) in row-major order
http://www.bom.gov.au/fwo/IDV60801/IDV60801.94828.json